Time;durP1;ratioP1;P1;durP2;ratioP2;P2;SDS_P1;SDS_P2;PMS_P1;PMS_P2;Temp;Humidity;BMP_temperature;BMP_pressure;BME280_temperature;BME280_humidity;BME280_pressure;Samples;Min_cycle;Max_cycle;Signal;HPM_P1;HPM_P2
2022/10/04 00:00:40;;;;;;;0.70;0.43;;;23.40;60.20;;;;;;6116828;28;20045;-57
2022/10/04 00:03:45;;;;;;;0.55;0.30;;;23.20;60.10;;;;;;6109602;28;20089;-55
2022/10/04 00:06:53;;;;;;;0.52;0.52;;;23.20;60.10;;;;;;6115005;28;20046;-58
2022/10/04 00:09:58;;;;;;;0.25;0.20;;;23.30;60.10;;;;;;6121616;28;20800;-57
2022/10/04 00:13:03;;;;;;;0.73;0.30;;;23.10;60.00;;;;;;6104883;28;20050;-55
2022/10/04 00:16:05;;;;;;;0.40;0.30;;;23.30;60.00;;;;;;6123425;28;21303;-56
2022/10/04 00:19:24;;;;;;;0.40;0.40;;;23.50;60.20;;;;;;6117923;28;21027;-57
2022/10/04 00:22:28;;;;;;;0.43;0.38;;;23.20;60.00;;;;;;6112934;28;20145;-57
2022/10/04 00:25:35;;;;;;;0.40;0.40;;;23.40;60.10;;;;;;6123096;28;20661;-55
2022/10/04 00:28:45;;;;;;;0.32;0.30;;;23.40;60.20;;;;;;6118747;28;20038;-57
2022/10/04 00:32:12;;;;;;;0.52;0.38;;;23.30;60.10;;;;;;6120858;28;20204;-57
2022/10/04 00:35:42;;;;;;;0.40;0.40;;;23.30;60.10;;;;;;6114917;28;20037;-57
2022/10/04 00:39:11;;;;;;;0.68;0.50;;;23.20;60.10;;;;;;6112575;28;20051;-57
2022/10/04 00:42:26;;;;;;;0.32;0.32;;;23.00;60.00;;;;;;6132121;28;20055;-57
2022/10/04 00:45:34;;;;;;;0.75;0.30;;;23.20;60.00;;;;;;6116988;28;20161;-56
2022/10/04 00:48:43;;;;;;;0.20;0.20;;;23.50;60.20;;;;;;6098209;28;20109;-57
2022/10/04 00:51:49;;;;;;;0.40;0.30;;;23.10;60.00;;;;;;6104646;28;20074;-56
2022/10/04 00:54:55;;;;;;;0.30;0.30;;;23.30;60.70;;;;;;6105734;28;20145;-57
2022/10/04 00:58:00;;;;;;;0.20;0.20;;;23.20;60.00;;;;;;6117314;28;20159;-57
2022/10/04 01:01:03;;;;;;;0.25;0.25;;;23.00;59.80;;;;;;6120012;28;20077;-56
2022/10/04 01:04:12;;;;;;;0.22;0.20;;;23.90;60.30;;;;;;6121089;28;20898;-56
2022/10/04 01:07:17;;;;;;;0.40;0.30;;;23.30;60.00;;;;;;6121647;28;20043;-57
2022/10/04 01:10:24;;;;;;;0.30;0.30;;;23.30;59.90;;;;;;6114039;28;20047;-57
2022/10/04 01:13:30;;;;;;;0.52;0.38;;;23.20;59.90;;;;;;6118173;28;20043;-57
2022/10/04 01:16:35;;;;;;;0.30;0.30;;;22.90;59.60;;;;;;6116843;28;20142;-57
2022/10/04 01:19:40;;;;;;;0.20;0.20;;;23.40;59.90;;;;;;6120269;28;20053;-56
2022/10/04 01:22:49;;;;;;;0.85;0.28;;;23.40;59.80;;;;;;6117608;28;20518;-55
2022/10/04 01:25:51;;;;;;;0.40;0.38;;;23.90;60.00;;;;;;6121981;28;20783;-56
2022/10/04 01:28:53;;;;;;;0.50;0.28;;;23.10;59.70;;;;;;6117539;28;20096;-57
2022/10/04 01:31:57;;;;;;;0.57;0.30;;;23.50;59.70;;;;;;6111045;28;20046;-57
2022/10/04 01:34:59;;;;;;;0.40;0.30;;;23.70;59.70;;;;;;6113258;28;20121;-56
2022/10/04 01:38:05;;;;;;;0.52;0.30;;;23.10;59.40;;;;;;6112997;28;20057;-56
2022/10/04 01:41:09;;;;;;;0.30;0.30;;;22.70;59.10;;;;;;6112151;28;20806;-57
2022/10/04 01:44:16;;;;;;;0.30;0.30;;;22.80;59.10;;;;;;6115892;28;20144;-57
2022/10/04 01:47:23;;;;;;;0.40;0.22;;;23.00;59.10;;;;;;6105236;28;20553;-55
2022/10/04 01:50:29;;;;;;;0.30;0.30;;;22.90;59.10;;;;;;6106299;28;20049;-55
2022/10/04 01:53:36;;;;;;;0.25;0.20;;;23.30;59.20;;;;;;6105259;28;20039;-51
2022/10/04 01:56:42;;;;;;;0.43;0.30;;;23.10;59.10;;;;;;6103169;28;20822;-53
2022/10/04 01:59:51;;;;;;;0.22;0.20;;;22.90;59.00;;;;;;6104747;28;20283;-54
2022/10/04 02:02:57;;;;;;;0.20;0.20;;;22.80;58.90;;;;;;6102232;28;20390;-55
2022/10/04 02:06:03;;;;;;;0.25;0.25;;;23.20;59.10;;;;;;6110186;28;20064;-54
2022/10/04 02:09:09;;;;;;;0.40;0.40;;;22.90;58.90;;;;;;6108356;28;20165;-54
2022/10/04 02:12:15;;;;;;;0.30;0.20;;;23.00;58.90;;;;;;6097352;28;20161;-54
2022/10/04 02:15:20;;;;;;;0.35;0.30;;;23.30;59.00;;;;;;6107645;28;20085;-55
2022/10/04 02:18:24;;;;;;;0.32;0.32;;;23.00;58.90;;;;;;6090645;28;20500;-54
2022/10/04 02:21:25;;;;;;;0.38;0.30;;;23.40;59.00;;;;;;6104170;28;20315;-56
2022/10/04 02:24:28;;;;;;;0.22;0.22;;;23.10;58.90;;;;;;6102540;28;20054;-53
2022/10/04 02:27:31;;;;;;;0.45;0.45;;;23.30;59.00;;;;;;6103546;28;20130;-53
2022/10/04 02:30:35;;;;;;;0.70;0.30;;;23.00;58.70;;;;;;6108622;28;20461;-56
2022/10/04 02:33:40;;;;;;;0.40;0.30;;;23.00;58.70;;;;;;6110912;28;20079;-56
2022/10/04 02:36:41;;;;;;;0.30;0.30;;;22.70;58.60;;;;;;6113151;28;20108;-56
2022/10/04 02:39:50;;;;;;;0.40;0.30;;;23.20;58.70;;;;;;6120020;28;20049;-56
2022/10/04 02:42:59;;;;;;;0.30;0.25;;;23.10;58.60;;;;;;6113809;28;20160;-57
2022/10/04 02:46:06;;;;;;;0.47;0.30;;;23.40;58.70;;;;;;6098621;28;20057;-55
2022/10/04 02:49:19;;;;;;;0.40;0.30;;;23.00;58.50;;;;;;6112396;28;20089;-56
2022/10/04 02:52:26;;;;;;;0.22;0.22;;;22.90;58.40;;;;;;6108697;28;20093;-56
2022/10/04 02:55:30;;;;;;;0.30;0.20;;;22.90;58.40;;;;;;6108870;28;20162;-55
2022/10/04 02:58:36;;;;;;;0.28;0.28;;;23.20;58.60;;;;;;6108674;28;20490;-52
2022/10/04 03:01:46;;;;;;;0.40;0.40;;;22.80;58.40;;;;;;6110930;28;20129;-55
2022/10/04 03:04:50;;;;;;;0.30;0.30;;;23.10;58.50;;;;;;6114411;28;20494;-57
2022/10/04 03:07:52;;;;;;;0.32;0.32;;;22.90;58.40;;;;;;6113052;28;20780;-55
2022/10/04 03:10:55;;;;;;;0.40;0.30;;;23.40;58.70;;;;;;6113809;28;20217;-54
2022/10/04 03:13:59;;;;;;;0.30;0.30;;;23.20;58.60;;;;;;6109005;28;20070;-51
2022/10/04 03:17:04;;;;;;;1.55;0.47;;;23.10;58.50;;;;;;6091493;28;20473;-52
2022/10/04 03:20:08;;;;;;;0.60;0.30;;;22.70;58.50;;;;;;6109086;28;20394;-54
2022/10/04 03:23:11;;;;;;;0.30;0.30;;;23.50;59.60;;;;;;6107963;28;20051;-49
2022/10/04 03:26:23;;;;;;;0.75;0.57;;;23.30;59.00;;;;;;6108413;28;20575;-57
2022/10/04 03:29:30;;;;;;;1.48;0.30;;;23.40;59.10;;;;;;6102075;28;20050;-57
2022/10/04 03:32:32;;;;;;;0.50;0.38;;;22.90;58.90;;;;;;6115901;28;20352;-56
2022/10/04 03:35:37;;;;;;;0.50;0.40;;;22.80;58.80;;;;;;6122430;28;20043;-57
2022/10/04 03:38:39;;;;;;;0.50;0.38;;;23.20;59.00;;;;;;6121811;28;20121;-58
2022/10/04 03:41:44;;;;;;;0.60;0.60;;;22.80;59.40;;;;;;6118904;28;20278;-56
2022/10/04 03:44:47;;;;;;;0.40;0.30;;;22.90;58.90;;;;;;6113869;28;20080;-57
2022/10/04 03:47:52;;;;;;;0.30;0.30;;;23.30;59.10;;;;;;6104936;28;20043;-56
2022/10/04 03:50:54;;;;;;;0.63;0.40;;;23.20;59.00;;;;;;6100521;28;21056;-56
2022/10/04 03:53:58;;;;;;;0.60;0.47;;;23.10;59.60;;;;;;6105941;28;20185;-56
2022/10/04 03:57:02;;;;;;;0.52;0.47;;;23.10;59.00;;;;;;6112131;28;20194;-56
2022/10/04 04:00:05;;;;;;;0.57;0.35;;;22.90;58.90;;;;;;6109485;28;20173;-55
2022/10/04 04:03:19;;;;;;;1.05;0.70;;;22.80;58.80;;;;;;6106357;28;20479;-55
2022/10/04 04:06:22;;;;;;;0.70;0.50;;;23.10;59.00;;;;;;6103515;28;20341;-56
2022/10/04 04:09:33;;;;;;;0.85;0.50;;;23.00;59.00;;;;;;6105645;28;20050;-55
2022/10/04 04:12:43;;;;;;;0.55;0.50;;;23.30;59.10;;;;;;6102045;28;20086;-54
2022/10/04 04:15:46;;;;;;;0.75;0.52;;;23.20;59.10;;;;;;6105205;28;23899;-54
2022/10/04 04:18:49;;;;;;;0.75;0.70;;;23.20;59.20;;;;;;6102895;28;20079;-56
2022/10/04 04:21:54;;;;;;;0.68;0.50;;;23.10;59.10;;;;;;6102286;28;20190;-55
2022/10/04 04:24:56;;;;;;;0.47;0.40;;;23.10;59.10;;;;;;6101205;28;20385;-53
2022/10/04 04:28:06;;;;;;;0.95;0.40;;;23.10;59.20;;;;;;6103608;28;20363;-52
2022/10/04 04:31:17;;;;;;;0.80;0.55;;;23.20;59.20;;;;;;6099123;28;20546;-55
2022/10/04 04:34:21;;;;;;;0.68;0.68;;;23.20;59.20;;;;;;6098438;28;20871;-55
2022/10/04 04:37:23;;;;;;;0.75;0.50;;;23.10;59.20;;;;;;6106569;28;20182;-54
2022/10/04 04:40:24;;;;;;;0.90;0.60;;;22.90;59.30;;;;;;6103526;28;20531;-53
2022/10/04 04:43:27;;;;;;;0.60;0.50;;;23.10;59.40;;;;;;6098673;28;20522;-53
2022/10/04 04:46:29;;;;;;;0.70;0.60;;;22.60;59.10;;;;;;6104310;28;20729;-52
2022/10/04 04:49:31;;;;;;;0.90;0.52;;;23.10;74.30;;;;;;6096420;28;20035;-53
2022/10/04 04:52:34;;;;;;;1.05;0.73;;;22.70;59.40;;;;;;6096468;28;20170;-56
2022/10/04 04:55:39;;;;;;;1.23;0.68;;;22.80;59.40;;;;;;6092954;28;20522;-54
2022/10/04 04:59:06;;;;;;;0.93;0.52;;;22.90;59.50;;;;;;6103895;28;20046;-56
2022/10/04 05:02:27;;;;;;;0.68;0.63;;;22.80;59.40;;;;;;6094554;28;20057;-57
2022/10/04 05:05:32;;;;;;;;;;;22.90;59.50;;;;;;6110059;28;20043;-55
2022/10/04 05:08:34;;;;;;;0.60;0.50;;;22.60;59.50;;;;;;6110399;28;19926;-56
2022/10/04 05:11:42;;;;;;;0.50;0.50;;;23.00;59.60;;;;;;6110400;28;20116;-57
2022/10/04 05:14:46;;;;;;;0.60;0.40;;;22.90;59.60;;;;;;6099908;28;20154;-57
2022/10/04 05:17:48;;;;;;;0.55;0.47;;;22.60;59.30;;;;;;6103286;28;20051;-56
2022/10/04 05:20:50;;;;;;;;;;;22.60;59.50;;;;;;6102067;28;20161;-54
2022/10/04 05:23:56;;;;;;;0.63;0.40;;;23.00;59.70;;;;;;6095384;28;20300;-53
2022/10/04 05:27:01;;;;;;;0.80;0.40;;;23.00;59.50;;;;;;6099075;28;20913;-56
2022/10/04 05:30:08;;;;;;;0.60;0.57;;;22.70;59.40;;;;;;6098054;28;20055;-53
2022/10/04 05:33:13;;;;;;;0.80;0.50;;;23.00;59.50;;;;;;6096638;28;20487;-55
2022/10/04 05:36:40;;;;;;;0.57;0.40;;;22.60;59.20;;;;;;6095034;28;20050;-57
2022/10/04 05:39:48;;;;;;;0.52;0.52;;;22.70;59.30;;;;;;6087774;28;22848;-56
2022/10/04 05:42:53;;;;;;;0.45;0.40;;;23.60;59.70;;;;;;6102423;28;20257;-57
2022/10/04 05:46:14;;;;;;;0.68;0.40;;;23.00;59.50;;;;;;6095119;28;20042;-55
2022/10/04 05:49:21;;;;;;;1.75;0.80;;;22.70;73.80;;;;;;6091660;28;21030;-56
2022/10/04 05:52:29;;;;;;;0.90;0.68;;;22.70;59.30;;;;;;6094606;28;20043;-54
2022/10/04 05:55:39;;;;;;;1.40;0.60;;;22.90;59.40;;;;;;6089337;28;20058;-56
2022/10/04 05:58:56;;;;;;;1.75;0.80;;;22.50;59.20;;;;;;6096051;28;20912;-56
2022/10/04 06:02:13;;;;;;;1.17;0.65;;;22.40;59.00;;;;;;6081928;28;20051;-57
2022/10/04 06:05:22;;;;;;;1.80;0.70;;;23.00;59.30;;;;;;6065848;28;20039;-57
2022/10/04 06:08:43;;;;;;;2.53;0.80;;;23.00;59.40;;;;;;6074670;28;20913;-54
2022/10/04 06:12:01;;;;;;;2.80;0.73;;;22.90;59.30;;;;;;6084561;28;20050;-57
2022/10/04 06:15:21;;;;;;;1.80;0.82;;;22.80;59.70;;;;;;6069506;28;20157;-58
2022/10/04 06:18:39;;;;;;;1.60;0.63;;;22.70;59.00;;;;;;6076508;28;20047;-57
2022/10/04 06:21:55;;;;;;;1.40;0.60;;;23.00;59.20;;;;;;6075364;28;20173;-57
2022/10/04 06:25:02;;;;;;;0.82;0.40;;;22.80;59.00;;;;;;6053089;28;20054;-56
2022/10/04 06:28:15;;;;;;;0.90;0.40;;;22.60;59.50;;;;;;6041696;28;20129;-57
2022/10/04 06:31:42;;;;;;;0.90;0.40;;;22.80;59.10;;;;;;6020493;28;20066;-56
2022/10/04 06:35:10;;;;;;;0.60;0.32;;;22.50;58.70;;;;;;6041284;28;20457;-56
2022/10/04 06:38:31;;;;;;;0.55;0.50;;;23.20;59.20;;;;;;6017719;28;20125;-56
2022/10/04 06:41:53;;;;;;;2.10;0.55;;;23.10;59.00;;;;;;6037863;28;20494;-54
2022/10/04 06:45:16;;;;;;;0.93;0.50;;;23.20;59.00;;;;;;6019659;28;20049;-56
2022/10/04 06:48:36;;;;;;;2.38;0.75;;;23.10;58.90;;;;;;6001904;28;21292;-55
2022/10/04 06:51:58;;;;;;;1.92;0.50;;;23.20;58.90;;;;;;5971135;28;20043;-56
2022/10/04 06:55:26;;;;;;;0.80;0.55;;;23.00;58.70;;;;;;5966262;28;20051;-56
2022/10/04 06:58:45;;;;;;;1.60;0.68;;;22.80;58.50;;;;;;5933798;28;20055;-57
2022/10/04 07:01:51;;;;;;;0.65;0.40;;;23.10;58.70;;;;;;5891127;28;21355;-57
2022/10/04 07:04:58;;;;;;;0.50;0.38;;;23.20;58.70;;;;;;5873220;28;20047;-57
2022/10/04 07:08:30;;;;;;;0.70;0.40;;;23.20;58.90;;;;;;5903553;28;20071;-59
2022/10/04 07:11:41;;;;;;;1.75;0.43;;;22.80;58.50;;;;;;5856878;28;20057;-58
2022/10/04 07:14:47;;;;;;;1.58;0.50;;;23.30;58.70;;;;;;5864804;28;20058;-58
2022/10/04 07:17:52;;;;;;;0.40;0.30;;;22.90;59.00;;;;;;5851189;28;20065;-59
2022/10/04 07:21:01;;;;;;;0.80;0.43;;;23.00;58.60;;;;;;5833870;28;28559;-58
2022/10/04 07:24:11;;;;;;;2.10;0.40;;;23.00;58.70;;;;;;5831692;28;20065;-59
2022/10/04 07:27:19;;;;;;;0.55;0.40;;;22.90;58.60;;;;;;5793591;28;20186;-58
2022/10/04 07:30:20;;;;;;;1.33;0.40;;;23.20;58.80;;;;;;5775089;28;24739;-60
2022/10/04 07:33:25;;;;;;;0.47;0.40;;;23.30;58.80;;;;;;5738216;28;20054;-60
2022/10/04 07:36:31;;;;;;;0.60;0.35;;;23.10;58.70;;;;;;5802626;28;21063;-57
2022/10/04 07:39:44;;;;;;;3.60;0.60;;;23.20;58.80;;;;;;5812113;28;28461;-58
2022/10/04 07:42:51;;;;;;;0.65;0.30;;;23.30;58.80;;;;;;5809303;28;20230;-58
2022/10/04 07:46:02;;;;;;;8.20;0.82;;;23.00;58.60;;;;;;5760391;28;25767;-57
2022/10/04 07:49:12;;;;;;;2.10;0.20;;;23.10;58.60;;;;;;5783351;28;20094;-56
2022/10/04 07:52:28;;;;;;;0.43;0.15;;;22.80;58.40;;;;;;5790444;28;20042;-56
2022/10/04 07:55:41;;;;;;;0.28;0.28;;;23.50;58.70;;;;;;5747765;28;21071;-58
2022/10/04 07:58:53;;;;;;;0.30;0.20;;;23.30;58.60;;;;;;5799363;28;22386;-58
2022/10/04 08:02:05;;;;;;;0.57;0.20;;;23.30;58.50;;;;;;5776212;28;22766;-57
2022/10/04 08:05:20;;;;;;;0.90;0.20;;;23.20;58.40;;;;;;5743524;28;20149;-54
2022/10/04 08:08:36;;;;;;;1.45;0.38;;;23.70;58.50;;;;;;5750922;28;20802;-56
2022/10/04 08:11:48;;;;;;;0.30;0.30;;;23.50;58.30;;;;;;5783358;28;20086;-55
2022/10/04 08:15:02;;;;;;;0.20;0.10;;;23.50;58.30;;;;;;5829025;28;20051;-54
2022/10/04 08:18:24;;;;;;;0.30;0.30;;;23.30;58.20;;;;;;5770449;28;20046;-56
2022/10/04 08:21:35;;;;;;;1.98;0.32;;;23.50;58.10;;;;;;5759474;28;20057;-54
2022/10/04 08:24:48;;;;;;;0.10;0.10;;;23.20;58.00;;;;;;5717804;28;23085;-54
2022/10/04 08:31:27;;;;;;;0.50;0.20;;;23.60;58.10;;;;;;5740407;28;20050;-55
2022/10/04 08:34:43;;;;;;;2.38;0.30;;;23.40;58.00;;;;;;5725145;28;22044;-55
2022/10/04 08:37:58;;;;;;;0.70;0.20;;;23.60;58.10;;;;;;5756502;28;20090;-56
2022/10/04 08:41:40;;;;;;;0.20;0.20;;;23.50;72.40;;;;;;5799722;28;20644;-54
2022/10/04 08:45:02;;;;;;;0.20;0.20;;;23.60;58.00;;;;;;5738978;28;25201;-52
2022/10/04 08:48:21;;;;;;;;;;;23.20;57.80;;;;;;5745623;28;20054;-60
2022/10/04 08:51:50;;;;;;;0.30;0.20;;;23.60;58.10;;;;;;5754991;28;22510;-59
2022/10/04 08:55:19;;;;;;;0.65;0.28;;;23.80;58.10;;;;;;5765401;28;34408;-59
2022/10/04 08:58:40;;;;;;;0.30;0.10;;;23.20;57.80;;;;;;5712769;28;27072;-60
2022/10/04 09:02:05;;;;;;;0.30;0.20;;;23.70;58.00;;;;;;5713715;28;28551;-59
2022/10/04 09:05:32;;;;;;;0.15;0.15;;;23.70;58.00;;;;;;5718115;28;20054;-59
2022/10/04 09:09:06;;;;;;;0.95;0.15;;;23.10;57.60;;;;;;5731421;28;21798;-58
2022/10/04 09:12:34;;;;;;;0.95;0.30;;;23.30;57.80;;;;;;5789068;28;20121;-57
2022/10/04 09:15:50;;;;;;;0.75;0.20;;;23.00;57.70;;;;;;5709442;28;26851;-56
2022/10/04 09:19:19;;;;;;;0.88;0.20;;;23.50;57.80;;;;;;5774390;28;30189;-60
2022/10/04 09:22:39;;;;;;;0.20;0.20;;;23.30;57.70;;;;;;5818433;28;20145;-59
2022/10/04 09:26:05;;;;;;;0.10;0.10;;;23.80;57.90;;;;;;5766899;28;20059;-60
2022/10/04 09:29:21;;;;;;;1.92;0.20;;;23.20;58.10;;;;;;5785110;28;20181;-57
2022/10/04 09:32:45;;;;;;;0.20;0.20;;;23.80;57.80;;;;;;5746682;28;21047;-59
2022/10/04 09:36:01;;;;;;;0.43;0.30;;;23.50;57.50;;;;;;5753502;28;20522;-59
2022/10/04 09:39:27;;;;;;;1.45;0.28;;;23.70;57.60;;;;;;5759224;28;21155;-58
2022/10/04 09:42:46;;;;;;;1.20;0.20;;;23.70;57.50;;;;;;5792480;28;20051;-58
2022/10/04 09:46:02;;;;;;;1.02;0.32;;;23.70;57.50;;;;;;5765245;28;20042;-60
2022/10/04 09:49:18;;;;;;;0.85;0.30;;;23.80;57.50;;;;;;5747265;28;28900;-58
2022/10/04 09:52:33;;;;;;;0.35;0.35;;;23.80;57.50;;;;;;5749931;28;23504;-59
2022/10/04 09:55:52;;;;;;;1.42;0.30;;;24.00;57.50;;;;;;5753414;28;20055;-60
2022/10/04 09:59:17;;;;;;;0.20;0.10;;;23.80;57.40;;;;;;5738191;28;20576;-61
2022/10/04 10:02:43;;;;;;;0.60;0.22;;;23.90;57.40;;;;;;5757582;28;20059;-60
2022/10/04 10:06:08;;;;;;;0.10;0.10;;;23.90;56.90;;;;;;5763675;28;20116;-58
2022/10/04 10:09:21;;;;;;;0.20;0.20;;;24.20;57.40;;;;;;5759693;28;20051;-58
2022/10/04 10:16:05;;;;;;;1.00;0.10;;;23.80;57.20;;;;;;5837151;28;20058;-58
2022/10/04 10:19:34;;;;;;;1.55;0.10;;;23.80;57.10;;;;;;5827059;28;21312;-59
2022/10/04 10:23:01;;;;;;;0.85;0.20;;;24.00;57.20;;;;;;5780129;28;20061;-60
2022/10/04 10:26:22;;;;;;;0.68;0.20;;;24.10;57.20;;;;;;5880758;28;20107;-60
2022/10/04 10:29:41;;;;;;;;;;;23.90;57.00;;;;;;5899645;28;20051;-59
2022/10/04 10:33:03;;;;;;;1.10;0.15;;;24.00;57.20;;;;;;5911174;28;20945;-57
2022/10/04 10:36:27;;;;;;;0.10;0.10;;;24.10;57.10;;;;;;5923792;28;20058;-60
2022/10/04 10:39:56;;;;;;;0.35;0.10;;;24.00;57.00;;;;;;5904163;28;20174;-60
2022/10/04 10:43:19;;;;;;;0.80;0.10;;;23.90;56.90;;;;;;5928174;28;20156;-59
2022/10/04 10:46:37;;;;;;;0.45;0.20;;;23.80;56.80;;;;;;5934088;28;20227;-60
2022/10/04 10:49:59;;;;;;;0.38;0.20;;;24.10;56.80;;;;;;5918882;28;20046;-60
2022/10/04 10:53:19;;;;;;;0.55;0.20;;;23.80;56.50;;;;;;5925960;28;20053;-60
2022/10/04 10:56:35;;;;;;;0.40;0.10;;;23.90;56.40;;;;;;5918698;28;20119;-60
2022/10/04 11:00:06;;;;;;;0.63;0.20;;;23.90;56.70;;;;;;5920541;28;20154;-60
2022/10/04 11:03:33;;;;;;;0.85;0.10;;;24.00;56.40;;;;;;5911019;28;20223;-60
2022/10/04 11:06:59;;;;;;;0.10;0.10;;;23.50;56.00;;;;;;5915930;28;20050;-60
2022/10/04 11:10:32;;;;;;;0.50;0.20;;;23.90;56.20;;;;;;5946706;28;20978;-58
2022/10/04 11:13:56;;;;;;;0.20;0.10;;;24.00;56.20;;;;;;5978279;28;21203;-56
2022/10/04 11:17:19;;;;;;;0.43;0.32;;;23.80;56.00;;;;;;5994498;28;20078;-59
2022/10/04 11:20:37;;;;;;;0.30;0.10;;;24.20;56.10;;;;;;5938989;28;20043;-59
2022/10/04 11:23:59;;;;;;;0.20;0.10;;;23.80;56.00;;;;;;5947374;28;20047;-58
2022/10/04 11:27:16;;;;;;;1.10;0.30;;;23.70;56.20;;;;;;5955501;28;20043;-59
2022/10/04 11:30:22;;;;;;;0.50;0.20;;;23.90;56.00;;;;;;5957206;28;20043;-56
2022/10/04 11:33:47;;;;;;;1.48;0.20;;;24.00;56.10;;;;;;5919716;28;21697;-59
2022/10/04 11:37:03;;;;;;;0.10;0.10;;;23.70;56.00;;;;;;5899238;28;20058;-58
2022/10/04 11:40:17;;;;;;;0.88;0.20;;;23.90;56.10;;;;;;5917077;28;26159;-58
2022/10/04 11:43:38;;;;;;;0.10;0.10;;;23.90;56.20;;;;;;5929903;28;20047;-56
2022/10/04 11:46:46;;;;;;;0.32;0.10;;;24.10;56.30;;;;;;5937566;28;20061;-59
2022/10/04 11:50:02;;;;;;;0.22;0.10;;;24.20;56.40;;;;;;5906908;28;20148;-59
2022/10/04 11:53:32;;;;;;;1.83;0.38;;;24.10;56.30;;;;;;5913044;28;20051;-58
2022/10/04 11:56:43;;;;;;;1.30;0.20;;;24.20;56.30;;;;;;5894790;28;20059;-59
2022/10/04 11:59:59;;;;;;;0.35;0.10;;;24.20;56.40;;;;;;5858144;28;20089;-61
2022/10/04 12:03:26;;;;;;;0.50;0.10;;;24.00;56.30;;;;;;5787064;28;20042;-61
2022/10/04 12:06:43;;;;;;;0.17;0.17;;;24.10;56.20;;;;;;5837644;28;20178;-54
2022/10/04 12:09:52;;;;;;;1.58;0.20;;;24.10;56.30;;;;;;5817165;28;28607;-56
2022/10/04 12:13:25;;;;;;;1.08;0.10;;;24.30;56.30;;;;;;5821642;28;20050;-56
2022/10/04 12:16:49;;;;;;;0.13;0.13;;;24.20;56.30;;;;;;5804264;28;20054;-56
2022/10/04 12:20:16;;;;;;;0.25;0.20;;;24.10;56.20;;;;;;5741393;28;20047;-56
2022/10/04 12:23:40;;;;;;;1.35;0.17;;;24.30;56.20;;;;;;5716034;28;32159;-57
2022/10/04 12:26:56;;;;;;;0.43;0.20;;;24.20;56.30;;;;;;5861574;28;20077;-57
2022/10/04 12:30:19;;;;;;;0.20;0.10;;;24.30;56.20;;;;;;5835842;28;20058;-55
2022/10/04 12:33:26;;;;;;;0.10;0.10;;;24.20;56.10;;;;;;5823429;28;22338;-56
2022/10/04 12:36:42;;;;;;;0.20;0.10;;;23.90;56.00;;;;;;5846656;28;21621;-55
2022/10/04 12:40:06;;;;;;;0.20;0.10;;;24.40;56.20;;;;;;5814543;28;20050;-57
2022/10/04 12:43:15;;;;;;;0.10;0.10;;;24.40;56.20;;;;;;5839548;28;20143;-61
2022/10/04 12:46:29;;;;;;;0.20;0.10;;;24.30;56.00;;;;;;5850105;28;20046;-61
2022/10/04 12:49:47;;;;;;;0.10;0.10;;;24.20;69.40;;;;;;5838891;28;21234;-60
2022/10/04 12:52:57;;;;;;;0.60;0.20;;;24.00;55.60;;;;;;5829712;28;20047;-60
2022/10/04 12:56:06;;;;;;;0.20;0.20;;;24.30;55.70;;;;;;5799188;28;20043;-59
2022/10/04 12:59:29;;;;;;;0.20;0.20;;;24.20;55.60;;;;;;5768724;28;20891;-58
2022/10/04 13:02:47;;;;;;;0.32;0.10;;;24.00;55.40;;;;;;5759399;28;20043;-59
2022/10/04 13:06:01;;;;;;;0.20;0.10;;;24.30;55.60;;;;;;5716564;28;20035;-60
2022/10/04 13:09:15;;;;;;;0.22;0.22;;;23.80;55.30;;;;;;5732332;28;20059;-60
2022/10/04 13:12:30;;;;;;;0.30;0.30;;;24.30;55.50;;;;;;5748730;28;20614;-61
2022/10/04 13:15:38;;;;;;;0.38;0.30;;;24.20;55.40;;;;;;5748180;28;22226;-60
2022/10/04 13:19:11;;;;;;;0.45;0.30;;;23.50;55.10;;;;;;5748850;28;32599;-59
2022/10/04 13:22:29;;;;;;;0.52;0.32;;;24.10;55.40;;;;;;5793273;28;21849;-60
2022/10/04 13:26:14;;;;;;;0.30;0.20;;;24.20;55.60;;;;;;5786996;28;20168;-60
2022/10/04 13:29:26;;;;;;;0.20;0.20;;;24.20;55.50;;;;;;5750943;28;31376;-58
2022/10/04 13:32:32;;;;;;;0.20;0.20;;;24.00;55.50;;;;;;5766218;28;25220;-59
2022/10/04 13:35:41;;;;;;;0.20;0.20;;;24.10;55.50;;;;;;5767934;28;20502;-62
2022/10/04 13:39:00;;;;;;;0.20;0.10;;;24.00;55.50;;;;;;5776139;28;20557;-61
2022/10/04 13:42:15;;;;;;;0.20;0.20;;;24.30;55.60;;;;;;5779692;28;20047;-61
2022/10/04 13:45:34;;;;;;;0.10;0.10;;;24.20;55.60;;;;;;5790851;28;22738;-59
2022/10/04 13:48:45;;;;;;;0.43;0.20;;;24.00;55.60;;;;;;5805477;28;20074;-60
2022/10/04 13:58:47;;;;;;;1.10;0.40;;;24.00;55.70;;;;;;5759493;28;20055;-60
2022/10/04 14:02:16;;;;;;;0.50;0.35;;;23.90;55.90;;;;;;5738892;28;23906;-61
2022/10/04 14:05:51;;;;;;;0.47;0.30;;;24.20;56.00;;;;;;5761822;28;32343;-60
2022/10/04 14:09:10;;;;;;;0.35;0.22;;;23.90;55.90;;;;;;5731753;28;20042;-60
2022/10/04 14:12:33;;;;;;;0.17;0.13;;;24.30;56.30;;;;;;5800823;28;20399;-60
2022/10/04 14:15:55;;;;;;;0.40;0.22;;;24.10;56.20;;;;;;5775008;28;21354;-60
2022/10/04 14:19:30;;;;;;;0.40;0.25;;;24.10;56.10;;;;;;5638272;28;20977;-60
2022/10/04 14:22:52;;;;;;;0.15;0.10;;;24.00;56.10;;;;;;5693474;28;22515;-60
2022/10/04 14:26:16;;;;;;;0.63;0.30;;;23.60;55.90;;;;;;5810721;28;20051;-59
2022/10/04 14:29:43;;;;;;;0.30;0.13;;;23.80;56.00;;;;;;5784628;28;20498;-60
2022/10/04 14:33:08;;;;;;;0.10;0.10;;;23.80;56.00;;;;;;5784886;28;20067;-60
2022/10/04 14:36:31;;;;;;;0.15;0.10;;;24.00;56.10;;;;;;5788653;28;20047;-59
2022/10/04 14:39:53;;;;;;;0.10;0.10;;;23.50;55.90;;;;;;5749023;28;20043;-60
2022/10/04 14:43:17;;;;;;;0.30;0.20;;;24.00;56.20;;;;;;5759422;28;24866;-60
2022/10/04 14:46:27;;;;;;;0.17;0.10;;;24.00;56.30;;;;;;5783050;28;20050;-59
2022/10/04 14:49:45;;;;;;;0.20;0.20;;;24.50;70.20;;;;;;5754553;28;30980;-60
2022/10/04 14:52:58;;;;;;;0.95;0.10;;;24.50;56.60;;;;;;5737043;28;31248;-61
2022/10/04 14:56:20;;;;;;;0.20;0.20;;;24.30;56.50;;;;;;5784922;28;29959;-61
2022/10/04 14:59:45;;;;;;;0.10;0.10;;;23.80;56.20;;;;;;5800854;28;20049;-60
2022/10/04 15:03:06;;;;;;;0.10;0.10;;;24.10;56.50;;;;;;5757027;28;20039;-59
2022/10/04 15:06:12;;;;;;;0.20;0.10;;;24.10;56.50;;;;;;5785611;28;20050;-59
2022/10/04 15:09:39;;;;;;;0.20;0.20;;;23.90;56.20;;;;;;5799994;28;20720;-58
2022/10/04 15:12:53;;;;;;;0.38;0.10;;;24.20;56.40;;;;;;5818934;28;20168;-56
2022/10/04 15:16:31;;;;;;;0.20;0.17;;;24.00;56.20;;;;;;5815075;28;20277;-61
2022/10/04 15:19:44;;;;;;;0.10;0.10;;;24.20;56.30;;;;;;5822524;28;28538;-60
2022/10/04 15:22:52;;;;;;;0.38;0.10;;;24.20;56.30;;;;;;5819823;28;25990;-61
2022/10/04 15:26:00;;;;;;;0.10;0.10;;;23.80;56.00;;;;;;5800388;28;29561;-59
2022/10/04 15:29:14;;;;;;;1.40;0.20;;;24.00;56.10;;;;;;5828169;28;24561;-62
2022/10/04 15:32:26;;;;;;;0.10;0.10;;;24.10;56.00;;;;;;5828443;28;20481;-60
2022/10/04 15:35:36;;;;;;;0.43;0.15;;;24.10;56.00;;;;;;5866567;28;20051;-61
2022/10/04 15:38:48;;;;;;;0.10;0.10;;;24.10;56.00;;;;;;5834786;28;20117;-61
2022/10/04 15:41:55;;;;;;;0.10;0.10;;;24.10;56.00;;;;;;5835103;28;21590;-60
2022/10/04 15:45:19;;;;;;;0.68;0.15;;;24.10;56.00;;;;;;5836975;28;20055;-60
2022/10/04 15:48:32;;;;;;;0.85;0.10;;;24.30;56.00;;;;;;5852171;28;20039;-60
2022/10/04 15:51:48;;;;;;;0.80;0.20;;;24.00;55.90;;;;;;5830097;28;27376;-60
2022/10/04 15:55:10;;;;;;;0.17;0.17;;;23.90;55.70;;;;;;5840353;28;29020;-58
2022/10/04 15:58:29;;;;;;;0.60;0.15;;;24.20;55.80;;;;;;5857599;28;20185;-60
2022/10/04 16:01:48;;;;;;;0.20;0.20;;;23.90;55.60;;;;;;5850233;28;20050;-59
2022/10/04 16:05:02;;;;;;;0.38;0.10;;;23.90;55.60;;;;;;5856718;28;20055;-61
2022/10/04 16:08:23;;;;;;;1.45;0.30;;;24.30;55.80;;;;;;5855027;28;28222;-59
2022/10/04 16:11:46;;;;;;;0.25;0.10;;;24.00;55.60;;;;;;5895509;28;20077;-61
2022/10/04 16:14:57;;;;;;;0.70;0.10;;;24.00;55.60;;;;;;5908822;28;20061;-59
2022/10/04 16:18:12;;;;;;;1.00;0.10;;;23.80;55.40;;;;;;5938908;28;20757;-59
2022/10/04 16:21:27;;;;;;;0.65;0.20;;;24.30;55.60;;;;;;5958152;28;20043;-60
2022/10/04 16:24:41;;;;;;;0.10;0.10;;;24.30;55.50;;;;;;5992209;28;20050;-61
2022/10/04 16:27:55;;;;;;;0.10;0.10;;;24.20;55.40;;;;;;6002431;28;20053;-60
2022/10/04 16:31:20;;;;;;;0.10;0.00;;;24.10;55.40;;;;;;6019388;28;20122;-60
2022/10/04 16:34:41;;;;;;;0.20;0.10;;;24.20;55.20;;;;;;6010719;28;20047;-59
2022/10/04 16:37:56;;;;;;;0.10;0.10;;;24.20;55.20;;;;;;6002837;28;22373;-59
2022/10/04 16:41:09;;;;;;;1.20;0.20;;;24.00;54.80;;;;;;6030992;28;20150;-60
2022/10/04 16:44:28;;;;;;;0.10;0.10;;;24.20;54.80;;;;;;6034352;28;20125;-60
2022/10/04 16:47:34;;;;;;;0.20;0.20;;;24.20;54.50;;;;;;6046785;28;20042;-59
2022/10/04 16:50:55;;;;;;;0.30;0.28;;;24.00;54.30;;;;;;6045107;28;20133;-58
2022/10/04 16:54:08;;;;;;;0.20;0.20;;;24.20;54.20;;;;;;6020560;28;20046;-61
2022/10/04 16:57:21;;;;;;;0.20;0.20;;;24.20;54.10;;;;;;6050633;28;20137;-61
2022/10/04 17:00:32;;;;;;;0.20;0.17;;;23.90;53.90;;;;;;6057540;28;20342;-61
2022/10/04 17:03:36;;;;;;;0.52;0.20;;;23.60;53.60;;;;;;6050501;28;20055;-60